sensor_id;sensor_type;location;lat;lon;timestamp;temperature;humidity
18577;DHT22;9418;52.694;13.294;2022-09-01T00:01:44;13.60;99.90
18577;DHT22;9418;52.694;13.294;2022-09-01T00:04:14;13.60;99.90
18577;DHT22;9418;52.694;13.294;2022-09-01T00:06:42;13.50;97.60
18577;DHT22;9418;52.694;13.294;2022-09-01T00:09:12;13.50;99.00
18577;DHT22;9418;52.694;13.294;2022-09-01T00:11:40;13.50;95.20
18577;DHT22;9418;52.694;13.294;2022-09-01T00:14:09;13.50;95.00
18577;DHT22;9418;52.694;13.294;2022-09-01T00:16:36;13.50;91.20
18577;DHT22;9418;52.694;13.294;2022-09-01T00:19:05;13.50;93.90
18577;DHT22;9418;52.694;13.294;2022-09-01T00:21:37;13.50;94.50
18577;DHT22;9418;52.694;13.294;2022-09-01T00:24:05;13.50;93.50
18577;DHT22;9418;52.694;13.294;2022-09-01T00:26:32;13.50;95.10
18577;DHT22;9418;52.694;13.294;2022-09-01T00:28:58;13.50;94.40
18577;DHT22;9418;52.694;13.294;2022-09-01T00:31:25;13.50;96.40
18577;DHT22;9418;52.694;13.294;2022-09-01T00:33:53;13.50;95.40
18577;DHT22;9418;52.694;13.294;2022-09-01T00:36:21;13.50;97.50
18577;DHT22;9418;52.694;13.294;2022-09-01T00:38:49;13.60;98.40
18577;DHT22;9418;52.694;13.294;2022-09-01T00:41:17;13.60;98.10
18577;DHT22;9418;52.694;13.294;2022-09-01T00:43:46;13.60;97.30
18577;DHT22;9418;52.694;13.294;2022-09-01T00:46:15;13.60;98.80
18577;DHT22;9418;52.694;13.294;2022-09-01T00:48:42;13.60;98.40
18577;DHT22;9418;52.694;13.294;2022-09-01T00:51:10;13.60;99.50
18577;DHT22;9418;52.694;13.294;2022-09-01T00:53:41;13.60;99.30
18577;DHT22;9418;52.694;13.294;2022-09-01T00:56:08;13.60;99.90
18577;DHT22;9418;52.694;13.294;2022-09-01T00:58:36;13.60;99.90
18577;DHT22;9418;52.694;13.294;2022-09-01T01:01:03;13.60;99.90
18577;DHT22;9418;52.694;13.294;2022-09-01T01:03:30;13.60;99.90
18577;DHT22;9418;52.694;13.294;2022-09-01T01:05:59;13.60;99.90
18577;DHT22;9418;52.694;13.294;2022-09-01T01:08:30;13.60;99.90
18577;DHT22;9418;52.694;13.294;2022-09-01T01:11:00;13.60;99.90
18577;DHT22;9418;52.694;13.294;2022-09-01T01:13:27;13.60;99.90
18577;DHT22;9418;52.694;13.294;2022-09-01T01:16:02;13.60;99.90
18577;DHT22;9418;52.694;13.294;2022-09-01T01:18:32;13.60;99.90
18577;DHT22;9418;52.694;13.294;2022-09-01T01:21:01;13.60;99.90
18577;DHT22;9418;52.694;13.294;2022-09-01T01:23:50;13.60;99.90
18577;DHT22;9418;52.694;13.294;2022-09-01T01:26:19;13.60;99.90
18577;DHT22;9418;52.694;13.294;2022-09-01T01:28:46;13.60;99.90
18577;DHT22;9418;52.694;13.294;2022-09-01T01:31:15;13.60;99.90
18577;DHT22;9418;52.694;13.294;2022-09-01T01:33:45;13.60;99.90
18577;DHT22;9418;52.694;13.294;2022-09-01T01:36:16;13.60;99.90
18577;DHT22;9418;52.694;13.294;2022-09-01T01:38:46;13.60;99.90
18577;DHT22;9418;52.694;13.294;2022-09-01T01:41:15;13.60;99.90
18577;DHT22;9418;52.694;13.294;2022-09-01T01:43:43;13.60;99.90
18577;DHT22;9418;52.694;13.294;2022-09-01T01:46:10;13.50;99.90
18577;DHT22;9418;52.694;13.294;2022-09-01T01:48:41;13.50;99.90
18577;DHT22;9418;52.694;13.294;2022-09-01T01:51:08;13.50;99.90
18577;DHT22;9418;52.694;13.294;2022-09-01T01:53:36;13.40;99.10
18577;DHT22;9418;52.694;13.294;2022-09-01T01:56:03;13.30;97.60
18577;DHT22;9418;52.694;13.294;2022-09-01T01:58:30;13.30;95.50
18577;DHT22;9418;52.694;13.294;2022-09-01T02:01:00;13.20;93.80
18577;DHT22;9418;52.694;13.294;2022-09-01T02:03:32;13.10;89.50
18577;DHT22;9418;52.694;13.294;2022-09-01T02:06:04;13.10;86.50
18577;DHT22;9418;52.694;13.294;2022-09-01T02:08:32;13.10;82.90
18577;DHT22;9418;52.694;13.294;2022-09-01T02:11:00;13.00;80.80
18577;DHT22;9418;52.694;13.294;2022-09-01T02:13:27;13.00;81.20
18577;DHT22;9418;52.694;13.294;2022-09-01T02:15:57;12.90;78.20
18577;DHT22;9418;52.694;13.294;2022-09-01T02:18:28;12.90;74.00
18577;DHT22;9418;52.694;13.294;2022-09-01T02:20:58;12.80;74.70
18577;DHT22;9418;52.694;13.294;2022-09-01T02:23:25;12.80;74.00
18577;DHT22;9418;52.694;13.294;2022-09-01T02:25:54;12.70;70.70
18577;DHT22;9418;52.694;13.294;2022-09-01T02:28:22;12.70;68.50
18577;DHT22;9418;52.694;13.294;2022-09-01T02:30:51;12.60;60.60
18577;DHT22;9418;52.694;13.294;2022-09-01T02:33:20;12.50;62.50
18577;DHT22;9418;52.694;13.294;2022-09-01T02:35:50;12.50;58.70
18577;DHT22;9418;52.694;13.294;2022-09-01T02:38:18;12.40;53.00
18577;DHT22;9418;52.694;13.294;2022-09-01T02:40:45;12.30;53.50
18577;DHT22;9418;52.694;13.294;2022-09-01T02:43:14;12.30;51.40
18577;DHT22;9418;52.694;13.294;2022-09-01T02:45:44;12.20;48.60
18577;DHT22;9418;52.694;13.294;2022-09-01T02:48:11;12.20;44.70
18577;DHT22;9418;52.694;13.294;2022-09-01T02:50:40;12.20;44.60
18577;DHT22;9418;52.694;13.294;2022-09-01T02:53:08;12.10;44.00
18577;DHT22;9418;52.694;13.294;2022-09-01T02:55:37;12.00;38.70
18577;DHT22;9418;52.694;13.294;2022-09-01T02:58:04;12.00;35.90
18577;DHT22;9418;52.694;13.294;2022-09-01T03:00:33;11.90;32.10
18577;DHT22;9418;52.694;13.294;2022-09-01T03:03:05;11.90;32.00
18577;DHT22;9418;52.694;13.294;2022-09-01T03:05:33;11.80;32.90
18577;DHT22;9418;52.694;13.294;2022-09-01T03:08:06;11.80;27.10
18577;DHT22;9418;52.694;13.294;2022-09-01T03:10:38;11.70;25.30
18577;DHT22;9418;52.694;13.294;2022-09-01T03:13:08;11.70;23.90
18577;DHT22;9418;52.694;13.294;2022-09-01T03:15:36;11.70;27.40
18577;DHT22;9418;52.694;13.294;2022-09-01T03:18:05;11.70;24.00
18577;DHT22;9418;52.694;13.294;2022-09-01T03:20:34;11.60;20.50
18577;DHT22;9418;52.694;13.294;2022-09-01T03:23:03;11.60;21.00
18577;DHT22;9418;52.694;13.294;2022-09-01T03:25:31;11.60;22.10
18577;DHT22;9418;52.694;13.294;2022-09-01T03:27:59;11.50;84.00
18577;DHT22;9418;52.694;13.294;2022-09-01T03:30:28;11.50;98.70
18577;DHT22;9418;52.694;13.294;2022-09-01T03:32:55;11.40;96.10
18577;DHT22;9418;52.694;13.294;2022-09-01T03:35:22;11.50;99.90
18577;DHT22;9418;52.694;13.294;2022-09-01T03:37:48;11.40;99.90
18577;DHT22;9418;52.694;13.294;2022-09-01T03:40:15;11.40;99.90
18577;DHT22;9418;52.694;13.294;2022-09-01T03:42:43;11.40;99.90
18577;DHT22;9418;52.694;13.294;2022-09-01T03:45:12;11.40;99.90
18577;DHT22;9418;52.694;13.294;2022-09-01T03:47:40;11.40;99.90
18577;DHT22;9418;52.694;13.294;2022-09-01T03:50:10;11.40;99.90
18577;DHT22;9418;52.694;13.294;2022-09-01T03:52:42;11.30;99.90
18577;DHT22;9418;52.694;13.294;2022-09-01T03:55:09;11.20;99.90
18577;DHT22;9418;52.694;13.294;2022-09-01T03:57:36;11.20;99.90
18577;DHT22;9418;52.694;13.294;2022-09-01T04:00:07;11.20;99.90
18577;DHT22;9418;52.694;13.294;2022-09-01T04:02:50;11.20;99.90
18577;DHT22;9418;52.694;13.294;2022-09-01T04:05:18;11.10;99.90
18577;DHT22;9418;52.694;13.294;2022-09-01T04:07:47;11.10;99.90
18577;DHT22;9418;52.694;13.294;2022-09-01T04:10:14;11.10;99.90
18577;DHT22;9418;52.694;13.294;2022-09-01T04:12:42;11.10;99.90
18577;DHT22;9418;52.694;13.294;2022-09-01T04:15:10;11.10;99.90
18577;DHT22;9418;52.694;13.294;2022-09-01T04:17:36;11.10;99.90
18577;DHT22;9418;52.694;13.294;2022-09-01T04:20:22;11.10;99.90
18577;DHT22;9418;52.694;13.294;2022-09-01T04:22:48;11.20;99.90
18577;DHT22;9418;52.694;13.294;2022-09-01T04:25:18;11.10;99.90
18577;DHT22;9418;52.694;13.294;2022-09-01T04:27:48;11.10;99.90
18577;DHT22;9418;52.694;13.294;2022-09-01T04:30:15;11.10;99.90
18577;DHT22;9418;52.694;13.294;2022-09-01T04:32:41;11.10;99.90
18577;DHT22;9418;52.694;13.294;2022-09-01T04:35:08;11.20;99.90
18577;DHT22;9418;52.694;13.294;2022-09-01T04:37:42;11.20;99.90
18577;DHT22;9418;52.694;13.294;2022-09-01T04:40:10;11.20;99.90
18577;DHT22;9418;52.694;13.294;2022-09-01T04:42:38;11.20;99.90
18577;DHT22;9418;52.694;13.294;2022-09-01T04:45:08;11.20;99.90
18577;DHT22;9418;52.694;13.294;2022-09-01T04:47:37;11.20;99.90
18577;DHT22;9418;52.694;13.294;2022-09-01T04:50:08;11.20;99.90
18577;DHT22;9418;52.694;13.294;2022-09-01T04:52:38;11.30;99.90
18577;DHT22;9418;52.694;13.294;2022-09-01T04:55:08;11.20;99.90
18577;DHT22;9418;52.694;13.294;2022-09-01T04:57:42;11.30;99.90
18577;DHT22;9418;52.694;13.294;2022-09-01T05:00:13;11.30;99.90
18577;DHT22;9418;52.694;13.294;2022-09-01T05:02:47;11.30;99.90
18577;DHT22;9418;52.694;13.294;2022-09-01T05:05:14;11.30;99.90
18577;DHT22;9418;52.694;13.294;2022-09-01T05:07:40;11.30;99.90
18577;DHT22;9418;52.694;13.294;2022-09-01T05:10:10;11.30;99.90
18577;DHT22;9418;52.694;13.294;2022-09-01T05:12:36;11.30;99.90
18577;DHT22;9418;52.694;13.294;2022-09-01T05:15:04;11.30;99.90
18577;DHT22;9418;52.694;13.294;2022-09-01T05:17:33;11.40;99.90
18577;DHT22;9418;52.694;13.294;2022-09-01T05:20:03;11.40;99.90
18577;DHT22;9418;52.694;13.294;2022-09-01T05:22:30;11.40;99.90
18577;DHT22;9418;52.694;13.294;2022-09-01T05:24:58;11.50;99.90
18577;DHT22;9418;52.694;13.294;2022-09-01T05:27:39;11.50;99.90
18577;DHT22;9418;52.694;13.294;2022-09-01T05:30:07;11.50;99.90
18577;DHT22;9418;52.694;13.294;2022-09-01T05:32:34;11.60;99.90
18577;DHT22;9418;52.694;13.294;2022-09-01T05:35:04;11.60;99.90
18577;DHT22;9418;52.694;13.294;2022-09-01T05:37:33;11.70;99.90
18577;DHT22;9418;52.694;13.294;2022-09-01T05:40:03;11.70;99.90
18577;DHT22;9418;52.694;13.294;2022-09-01T05:42:30;11.80;99.90
18577;DHT22;9418;52.694;13.294;2022-09-01T05:44:58;11.90;99.90
18577;DHT22;9418;52.694;13.294;2022-09-01T05:47:26;12.00;99.90
18577;DHT22;9418;52.694;13.294;2022-09-01T05:49:53;12.00;99.90
18577;DHT22;9418;52.694;13.294;2022-09-01T05:52:20;12.10;99.90
18577;DHT22;9418;52.694;13.294;2022-09-01T05:54:50;12.10;99.90
18577;DHT22;9418;52.694;13.294;2022-09-01T05:57:16;12.20;99.90
18577;DHT22;9418;52.694;13.294;2022-09-01T05:59:44;12.30;99.90
18577;DHT22;9418;52.694;13.294;2022-09-01T06:02:12;12.40;99.90
18577;DHT22;9418;52.694;13.294;2022-09-01T06:04:40;12.50;99.90
18577;DHT22;9418;52.694;13.294;2022-09-01T06:07:10;12.60;99.90
18577;DHT22;9418;52.694;13.294;2022-09-01T06:09:40;12.70;99.90
18577;DHT22;9418;52.694;13.294;2022-09-01T06:12:07;12.80;99.90
18577;DHT22;9418;52.694;13.294;2022-09-01T06:14:41;12.90;99.90
18577;DHT22;9418;52.694;13.294;2022-09-01T06:17:08;13.00;99.90
18577;DHT22;9418;52.694;13.294;2022-09-01T06:19:37;13.00;99.90
18577;DHT22;9418;52.694;13.294;2022-09-01T06:22:05;13.00;99.90
18577;DHT22;9418;52.694;13.294;2022-09-01T06:24:31;13.10;89.10
18577;DHT22;9418;52.694;13.294;2022-09-01T06:26:58;13.20;24.00
18577;DHT22;9418;52.694;13.294;2022-09-01T06:29:25;13.20;24.30
18577;DHT22;9418;52.694;13.294;2022-09-01T06:31:52;13.30;23.00
18577;DHT22;9418;52.694;13.294;2022-09-01T06:34:19;13.30;27.50
18577;DHT22;9418;52.694;13.294;2022-09-01T06:36:48;13.40;31.90
18577;DHT22;9418;52.694;13.294;2022-09-01T06:39:16;13.40;39.40
18577;DHT22;9418;52.694;13.294;2022-09-01T06:41:45;13.50;38.60
18577;DHT22;9418;52.694;13.294;2022-09-01T06:44:14;13.50;41.00
18577;DHT22;9418;52.694;13.294;2022-09-01T06:46:46;13.60;42.30
18577;DHT22;9418;52.694;13.294;2022-09-01T06:49:13;13.70;45.60
18577;DHT22;9418;52.694;13.294;2022-09-01T06:51:40;13.80;47.20
18577;DHT22;9418;52.694;13.294;2022-09-01T06:54:08;13.90;54.40
18577;DHT22;9418;52.694;13.294;2022-09-01T06:56:38;14.00;64.40
18577;DHT22;9418;52.694;13.294;2022-09-01T06:59:05;14.10;67.80
18577;DHT22;9418;52.694;13.294;2022-09-01T07:01:32;14.20;73.70
18577;DHT22;9418;52.694;13.294;2022-09-01T07:04:00;14.30;80.50
18577;DHT22;9418;52.694;13.294;2022-09-01T07:06:27;14.30;85.30
18577;DHT22;9418;52.694;13.294;2022-09-01T07:08:54;14.50;86.50
18577;DHT22;9418;52.694;13.294;2022-09-01T07:11:24;14.60;89.60
18577;DHT22;9418;52.694;13.294;2022-09-01T07:13:53;14.70;99.90
18577;DHT22;9418;52.694;13.294;2022-09-01T07:16:22;14.80;99.90
18577;DHT22;9418;52.694;13.294;2022-09-01T07:18:49;15.00;99.90
18577;DHT22;9418;52.694;13.294;2022-09-01T07:21:17;15.10;99.90
18577;DHT22;9418;52.694;13.294;2022-09-01T07:23:44;15.20;99.90
18577;DHT22;9418;52.694;13.294;2022-09-01T07:26:11;15.30;99.90
18577;DHT22;9418;52.694;13.294;2022-09-01T07:28:43;15.40;99.90
18577;DHT22;9418;52.694;13.294;2022-09-01T07:31:17;15.50;99.90
18577;DHT22;9418;52.694;13.294;2022-09-01T07:33:46;15.50;99.90
18577;DHT22;9418;52.694;13.294;2022-09-01T07:36:13;15.60;99.90
18577;DHT22;9418;52.694;13.294;2022-09-01T07:38:40;15.70;99.90
18577;DHT22;9418;52.694;13.294;2022-09-01T07:41:07;15.80;99.90
18577;DHT22;9418;52.694;13.294;2022-09-01T07:43:37;15.90;99.90
18577;DHT22;9418;52.694;13.294;2022-09-01T07:46:07;16.00;99.90
18577;DHT22;9418;52.694;13.294;2022-09-01T07:48:34;16.20;99.90
18577;DHT22;9418;52.694;13.294;2022-09-01T07:51:02;16.30;99.90
18577;DHT22;9418;52.694;13.294;2022-09-01T07:53:31;16.40;99.90
18577;DHT22;9418;52.694;13.294;2022-09-01T07:56:04;16.50;99.90
18577;DHT22;9418;52.694;13.294;2022-09-01T07:58:35;16.50;99.90
18577;DHT22;9418;52.694;13.294;2022-09-01T08:01:07;16.60;99.90
18577;DHT22;9418;52.694;13.294;2022-09-01T08:03:34;16.70;99.90
18577;DHT22;9418;52.694;13.294;2022-09-01T08:06:02;16.80;99.90
18577;DHT22;9418;52.694;13.294;2022-09-01T08:08:31;16.80;99.90
18577;DHT22;9418;52.694;13.294;2022-09-01T08:10:57;16.90;99.90
18577;DHT22;9418;52.694;13.294;2022-09-01T08:13:24;17.30;99.90
18577;DHT22;9418;52.694;13.294;2022-09-01T08:15:51;17.70;22.80
18577;DHT22;9418;52.694;13.294;2022-09-01T08:18:19;17.90;40.50
18577;DHT22;9418;52.694;13.294;2022-09-01T08:20:46;17.90;46.70
18577;DHT22;9418;52.694;13.294;2022-09-01T08:23:14;17.90;40.70
18577;DHT22;9418;52.694;13.294;2022-09-01T08:25:44;17.80;41.70
18577;DHT22;9418;52.694;13.294;2022-09-01T08:28:11;17.80;51.80
18577;DHT22;9418;52.694;13.294;2022-09-01T08:30:40;17.70;40.60
18577;DHT22;9418;52.694;13.294;2022-09-01T08:33:07;17.80;32.50
18577;DHT22;9418;52.694;13.294;2022-09-01T08:35:38;17.80;48.30
18577;DHT22;9418;52.694;13.294;2022-09-01T08:38:05;17.90;58.40
18577;DHT22;9418;52.694;13.294;2022-09-01T08:40:31;17.90;62.20
18577;DHT22;9418;52.694;13.294;2022-09-01T08:43:08;17.90;72.70
18577;DHT22;9418;52.694;13.294;2022-09-01T08:45:42;18.00;72.60
18577;DHT22;9418;52.694;13.294;2022-09-01T08:48:13;18.10;78.10
18577;DHT22;9418;52.694;13.294;2022-09-01T08:50:44;18.20;91.90
18577;DHT22;9418;52.694;13.294;2022-09-01T08:53:20;18.30;88.50
18577;DHT22;9418;52.694;13.294;2022-09-01T08:55:52;18.40;78.90
18577;DHT22;9418;52.694;13.294;2022-09-01T08:58:20;18.50;96.80
18577;DHT22;9418;52.694;13.294;2022-09-01T09:00:54;18.60;88.90
18577;DHT22;9418;52.694;13.294;2022-09-01T09:03:28;18.70;99.90
18577;DHT22;9418;52.694;13.294;2022-09-01T09:06:05;18.80;99.90
18577;DHT22;9418;52.694;13.294;2022-09-01T09:08:47;18.90;99.90
18577;DHT22;9418;52.694;13.294;2022-09-01T09:11:36;19.00;99.90
18577;DHT22;9418;52.694;13.294;2022-09-01T09:14:10;19.10;99.90
18577;DHT22;9418;52.694;13.294;2022-09-01T09:16:41;19.10;99.90
18577;DHT22;9418;52.694;13.294;2022-09-01T09:19:12;19.10;99.90
18577;DHT22;9418;52.694;13.294;2022-09-01T09:21:45;19.00;99.90
18577;DHT22;9418;52.694;13.294;2022-09-01T09:24:16;19.60;99.90
18577;DHT22;9418;52.694;13.294;2022-09-01T09:26:47;19.40;99.90
18577;DHT22;9418;52.694;13.294;2022-09-01T09:29:14;19.30;99.90
18577;DHT22;9418;52.694;13.294;2022-09-01T09:31:41;19.20;99.90
18577;DHT22;9418;52.694;13.294;2022-09-01T09:34:17;19.50;99.90
18577;DHT22;9418;52.694;13.294;2022-09-01T09:36:45;19.70;99.90
18577;DHT22;9418;52.694;13.294;2022-09-01T09:39:13;19.80;99.90
18577;DHT22;9418;52.694;13.294;2022-09-01T09:41:43;20.00;99.90
18577;DHT22;9418;52.694;13.294;2022-09-01T09:44:29;20.00;99.90
18577;DHT22;9418;52.694;13.294;2022-09-01T09:46:57;19.90;99.90
18577;DHT22;9418;52.694;13.294;2022-09-01T09:49:26;20.10;99.90
18577;DHT22;9418;52.694;13.294;2022-09-01T09:51:56;20.20;99.90
18577;DHT22;9418;52.694;13.294;2022-09-01T09:54:24;20.00;99.90
18577;DHT22;9418;52.694;13.294;2022-09-01T09:57:08;20.20;99.90
18577;DHT22;9418;52.694;13.294;2022-09-01T09:59:40;20.10;99.90
18577;DHT22;9418;52.694;13.294;2022-09-01T10:02:21;20.30;99.90
18577;DHT22;9418;52.694;13.294;2022-09-01T10:04:50;20.40;99.90
18577;DHT22;9418;52.694;13.294;2022-09-01T10:07:39;20.60;99.90
18577;DHT22;9418;52.694;13.294;2022-09-01T10:12:50;20.50;99.90
18577;DHT22;9418;52.694;13.294;2022-09-01T10:15:19;20.50;99.90
18577;DHT22;9418;52.694;13.294;2022-09-01T10:17:47;20.50;99.90
18577;DHT22;9418;52.694;13.294;2022-09-01T10:20:17;20.50;99.90
18577;DHT22;9418;52.694;13.294;2022-09-01T10:22:47;20.60;99.90
18577;DHT22;9418;52.694;13.294;2022-09-01T10:25:16;20.70;99.90
18577;DHT22;9418;52.694;13.294;2022-09-01T10:27:48;20.80;99.90
18577;DHT22;9418;52.694;13.294;2022-09-01T10:30:19;20.70;99.90
18577;DHT22;9418;52.694;13.294;2022-09-01T10:32:48;20.60;99.90
18577;DHT22;9418;52.694;13.294;2022-09-01T10:35:19;20.50;99.90
18577;DHT22;9418;52.694;13.294;2022-09-01T10:37:50;20.40;99.90
18577;DHT22;9418;52.694;13.294;2022-09-01T10:40:36;20.50;99.90
18577;DHT22;9418;52.694;13.294;2022-09-01T10:43:32;20.60;99.90
18577;DHT22;9418;52.694;13.294;2022-09-01T10:45:59;20.70;99.90
18577;DHT22;9418;52.694;13.294;2022-09-01T10:48:28;20.90;99.90
18577;DHT22;9418;52.694;13.294;2022-09-01T10:53:57;21.10;99.90
18577;DHT22;9418;52.694;13.294;2022-09-01T10:56:34;20.70;99.90
18577;DHT22;9418;52.694;13.294;2022-09-01T10:59:04;20.40;99.90
18577;DHT22;9418;52.694;13.294;2022-09-01T11:02:03;20.20;99.90
18577;DHT22;9418;52.694;13.294;2022-09-01T11:07:31;19.90;99.90
18577;DHT22;9418;52.694;13.294;2022-09-01T11:10:32;19.80;99.90
18577;DHT22;9418;52.694;13.294;2022-09-01T11:13:25;19.70;99.90
18577;DHT22;9418;52.694;13.294;2022-09-01T11:15:55;19.60;99.90
18577;DHT22;9418;52.694;13.294;2022-09-01T11:18:42;19.60;99.90
18577;DHT22;9418;52.694;13.294;2022-09-01T11:21:14;19.40;99.90
18577;DHT22;9418;52.694;13.294;2022-09-01T11:23:42;19.40;99.90
18577;DHT22;9418;52.694;13.294;2022-09-01T11:26:45;19.30;99.90
18577;DHT22;9418;52.694;13.294;2022-09-01T11:32:12;19.30;99.90
18577;DHT22;9418;52.694;13.294;2022-09-01T11:34:41;19.20;99.90
18577;DHT22;9418;52.694;13.294;2022-09-01T11:37:13;19.20;99.90
18577;DHT22;9418;52.694;13.294;2022-09-01T11:39:42;19.20;99.90
18577;DHT22;9418;52.694;13.294;2022-09-01T11:42:18;19.20;99.90
18577;DHT22;9418;52.694;13.294;2022-09-01T11:44:49;19.20;99.90
18577;DHT22;9418;52.694;13.294;2022-09-01T11:47:19;19.40;99.90
18577;DHT22;9418;52.694;13.294;2022-09-01T11:49:50;19.60;99.90
18577;DHT22;9418;52.694;13.294;2022-09-01T11:52:19;19.90;99.90
18577;DHT22;9418;52.694;13.294;2022-09-01T11:54:47;19.90;99.90
18577;DHT22;9418;52.694;13.294;2022-09-01T11:57:28;19.90;99.90
18577;DHT22;9418;52.694;13.294;2022-09-01T11:59:56;19.70;99.90
18577;DHT22;9418;52.694;13.294;2022-09-01T12:02:26;19.60;99.90
18577;DHT22;9418;52.694;13.294;2022-09-01T12:04:55;19.60;99.90
18577;DHT22;9418;52.694;13.294;2022-09-01T12:07:26;19.60;99.90
18577;DHT22;9418;52.694;13.294;2022-09-01T12:09:54;19.80;99.90
18577;DHT22;9418;52.694;13.294;2022-09-01T12:12:29;20.00;99.90
18577;DHT22;9418;52.694;13.294;2022-09-01T12:14:56;20.20;99.90
18577;DHT22;9418;52.694;13.294;2022-09-01T12:17:23;20.30;99.90
18577;DHT22;9418;52.694;13.294;2022-09-01T12:19:50;20.20;99.90
18577;DHT22;9418;52.694;13.294;2022-09-01T12:22:18;20.30;99.90
18577;DHT22;9418;52.694;13.294;2022-09-01T12:24:49;20.40;99.90
18577;DHT22;9418;52.694;13.294;2022-09-01T12:27:16;20.50;99.90
18577;DHT22;9418;52.694;13.294;2022-09-01T12:29:44;20.50;99.90
18577;DHT22;9418;52.694;13.294;2022-09-01T12:32:13;20.70;99.90
18577;DHT22;9418;52.694;13.294;2022-09-01T12:34:41;20.60;99.90
18577;DHT22;9418;52.694;13.294;2022-09-01T12:37:11;20.70;99.90
18577;DHT22;9418;52.694;13.294;2022-09-01T12:39:39;20.80;99.90
18577;DHT22;9418;52.694;13.294;2022-09-01T12:42:09;21.00;99.90
18577;DHT22;9418;52.694;13.294;2022-09-01T12:44:46;21.20;99.90
18577;DHT22;9418;52.694;13.294;2022-09-01T12:47:43;21.20;99.90
18577;DHT22;9418;52.694;13.294;2022-09-01T12:50:40;21.20;99.90
18577;DHT22;9418;52.694;13.294;2022-09-01T12:53:16;21.20;99.90
18577;DHT22;9418;52.694;13.294;2022-09-01T12:58:34;21.20;99.90
18577;DHT22;9418;52.694;13.294;2022-09-01T13:01:05;21.20;99.90
18577;DHT22;9418;52.694;13.294;2022-09-01T13:03:33;21.00;99.90
18577;DHT22;9418;52.694;13.294;2022-09-01T13:06:01;20.90;99.90
18577;DHT22;9418;52.694;13.294;2022-09-01T13:08:29;21.00;99.90
18577;DHT22;9418;52.694;13.294;2022-09-01T13:11:01;21.00;99.90
18577;DHT22;9418;52.694;13.294;2022-09-01T13:13:28;21.10;99.90
18577;DHT22;9418;52.694;13.294;2022-09-01T13:15:57;21.30;99.90
18577;DHT22;9418;52.694;13.294;2022-09-01T13:18:26;21.10;99.90
18577;DHT22;9418;52.694;13.294;2022-09-01T13:20:55;21.50;99.90
18577;DHT22;9418;52.694;13.294;2022-09-01T13:23:22;21.60;99.90
18577;DHT22;9418;52.694;13.294;2022-09-01T13:25:49;21.60;99.90
18577;DHT22;9418;52.694;13.294;2022-09-01T13:28:16;21.70;99.90
18577;DHT22;9418;52.694;13.294;2022-09-01T13:30:44;21.60;99.90
18577;DHT22;9418;52.694;13.294;2022-09-01T13:33:12;21.60;99.90
18577;DHT22;9418;52.694;13.294;2022-09-01T13:35:40;21.60;99.90
18577;DHT22;9418;52.694;13.294;2022-09-01T13:38:07;21.70;99.90
18577;DHT22;9418;52.694;13.294;2022-09-01T13:40:34;21.60;99.90
18577;DHT22;9418;52.694;13.294;2022-09-01T13:43:00;21.30;99.90
18577;DHT22;9418;52.694;13.294;2022-09-01T13:45:29;21.20;99.90
18577;DHT22;9418;52.694;13.294;2022-09-01T13:47:56;21.10;99.90
18577;DHT22;9418;52.694;13.294;2022-09-01T13:50:23;21.00;99.90
18577;DHT22;9418;52.694;13.294;2022-09-01T13:52:54;20.80;99.90
18577;DHT22;9418;52.694;13.294;2022-09-01T13:55:24;20.80;99.90
18577;DHT22;9418;52.694;13.294;2022-09-01T13:57:51;20.80;99.90
18577;DHT22;9418;52.694;13.294;2022-09-01T14:00:19;21.00;99.90
18577;DHT22;9418;52.694;13.294;2022-09-01T14:02:51;21.00;99.90
18577;DHT22;9418;52.694;13.294;2022-09-01T14:05:19;21.00;99.90
18577;DHT22;9418;52.694;13.294;2022-09-01T14:07:47;21.10;99.90
18577;DHT22;9418;52.694;13.294;2022-09-01T14:10:15;21.40;99.90
18577;DHT22;9418;52.694;13.294;2022-09-01T14:12:42;21.50;99.90
18577;DHT22;9418;52.694;13.294;2022-09-01T14:15:11;21.50;99.90
18577;DHT22;9418;52.694;13.294;2022-09-01T14:17:38;21.40;99.90
18577;DHT22;9418;52.694;13.294;2022-09-01T14:20:08;21.30;99.90
18577;DHT22;9418;52.694;13.294;2022-09-01T14:22:37;21.20;99.90
18577;DHT22;9418;52.694;13.294;2022-09-01T14:25:05;21.10;99.90
18577;DHT22;9418;52.694;13.294;2022-09-01T14:27:33;21.10;99.90
18577;DHT22;9418;52.694;13.294;2022-09-01T14:29:59;21.20;99.90
18577;DHT22;9418;52.694;13.294;2022-09-01T14:32:26;21.40;99.90
18577;DHT22;9418;52.694;13.294;2022-09-01T14:34:54;21.50;99.90
18577;DHT22;9418;52.694;13.294;2022-09-01T14:37:22;21.50;99.90
18577;DHT22;9418;52.694;13.294;2022-09-01T14:39:49;21.70;99.90
18577;DHT22;9418;52.694;13.294;2022-09-01T14:42:16;21.90;99.90
18577;DHT22;9418;52.694;13.294;2022-09-01T14:44:46;21.90;99.90
18577;DHT22;9418;52.694;13.294;2022-09-01T14:47:13;22.00;99.90
18577;DHT22;9418;52.694;13.294;2022-09-01T14:49:41;22.00;99.90
18577;DHT22;9418;52.694;13.294;2022-09-01T14:52:08;22.00;99.90
18577;DHT22;9418;52.694;13.294;2022-09-01T14:54:37;22.00;99.90
18577;DHT22;9418;52.694;13.294;2022-09-01T14:57:04;22.00;99.90
18577;DHT22;9418;52.694;13.294;2022-09-01T14:59:31;21.80;99.90
18577;DHT22;9418;52.694;13.294;2022-09-01T15:01:59;21.60;99.90
18577;DHT22;9418;52.694;13.294;2022-09-01T15:04:26;21.50;99.90
18577;DHT22;9418;52.694;13.294;2022-09-01T15:06:53;21.40;99.90
18577;DHT22;9418;52.694;13.294;2022-09-01T15:09:20;21.10;99.90
18577;DHT22;9418;52.694;13.294;2022-09-01T15:11:47;21.00;1.40
18577;DHT22;9418;52.694;13.294;2022-09-01T15:14:13;20.90;99.90
18577;DHT22;9418;52.694;13.294;2022-09-01T15:16:40;21.00;99.90
18577;DHT22;9418;52.694;13.294;2022-09-01T15:19:11;20.90;99.90
18577;DHT22;9418;52.694;13.294;2022-09-01T15:21:39;20.80;99.90
18577;DHT22;9418;52.694;13.294;2022-09-01T15:24:07;20.70;99.90
18577;DHT22;9418;52.694;13.294;2022-09-01T15:26:35;20.60;99.90
18577;DHT22;9418;52.694;13.294;2022-09-01T15:29:03;20.50;99.90
18577;DHT22;9418;52.694;13.294;2022-09-01T15:31:31;20.50;99.90
18577;DHT22;9418;52.694;13.294;2022-09-01T15:33:59;20.50;99.90
18577;DHT22;9418;52.694;13.294;2022-09-01T15:36:28;20.60;99.90
18577;DHT22;9418;52.694;13.294;2022-09-01T15:38:56;20.60;99.90
18577;DHT22;9418;52.694;13.294;2022-09-01T15:41:26;20.60;99.90
18577;DHT22;9418;52.694;13.294;2022-09-01T15:43:54;20.60;99.90
18577;DHT22;9418;52.694;13.294;2022-09-01T15:46:21;20.60;99.90
18577;DHT22;9418;52.694;13.294;2022-09-01T15:48:47;20.50;99.90
18577;DHT22;9418;52.694;13.294;2022-09-01T15:51:31;20.40;99.90
18577;DHT22;9418;52.694;13.294;2022-09-01T15:54:01;20.30;99.90
18577;DHT22;9418;52.694;13.294;2022-09-01T15:56:29;20.10;99.90
18577;DHT22;9418;52.694;13.294;2022-09-01T15:58:57;20.00;99.90
18577;DHT22;9418;52.694;13.294;2022-09-01T16:01:25;19.90;99.90